createdAt,value
2018-08-04T00:00:42.441Z,24.50
2018-08-04T00:03:10.732Z,24.50
2018-08-04T00:05:38.998Z,24.50
2018-08-04T00:08:07.279Z,24.40
2018-08-04T00:10:35.541Z,24.30
2018-08-04T00:13:03.817Z,24.30
2018-08-04T00:15:32.090Z,24.30
2018-08-04T00:18:00.358Z,24.20
2018-08-04T00:20:28.614Z,24.10
2018-08-04T00:22:56.903Z,24.00
2018-08-04T00:25:25.155Z,23.90
2018-08-04T00:27:53.419Z,23.80
2018-08-04T00:30:21.709Z,23.70
2018-08-04T00:32:49.974Z,23.60
2018-08-04T00:37:46.249Z,23.60
2018-08-04T00:40:14.489Z,23.60
2018-08-04T00:42:43.053Z,23.70
2018-08-04T00:45:11.308Z,23.70
2018-08-04T00:47:39.580Z,23.70
2018-08-04T00:50:08.985Z,23.70
2018-08-04T00:52:37.231Z,23.70
2018-08-04T00:55:05.529Z,23.70
2018-08-04T00:57:33.817Z,23.60
2018-08-04T01:00:02.104Z,23.50
2018-08-04T01:02:30.342Z,23.50
2018-08-04T01:04:58.613Z,23.40
2018-08-04T01:07:26.856Z,23.40
2018-08-04T01:09:57.915Z,23.30
2018-08-04T01:12:26.180Z,23.30
2018-08-04T01:14:54.474Z,23.20
2018-08-04T01:17:22.741Z,23.20
2018-08-04T01:19:51.086Z,23.10
2018-08-04T01:22:19.457Z,23.10
2018-08-04T01:24:47.718Z,23.10
2018-08-04T01:27:15.976Z,23.20
2018-08-04T01:29:44.243Z,23.20
2018-08-04T01:32:12.513Z,23.20
2018-08-04T01:34:40.798Z,23.20
2018-08-04T01:37:09.061Z,23.20
2018-08-04T01:39:37.321Z,23.30
2018-08-04T01:42:05.645Z,23.20
2018-08-04T01:44:33.921Z,23.20
2018-08-04T01:47:02.190Z,23.20
2018-08-04T01:49:30.479Z,23.20
2018-08-04T01:51:58.750Z,23.20
2018-08-04T01:54:27.036Z,23.10
2018-08-04T01:56:55.280Z,23.10
2018-08-04T01:59:23.553Z,23.10
2018-08-04T02:01:51.827Z,23.20
2018-08-04T02:04:20.091Z,23.10
2018-08-04T02:06:48.389Z,23.10
2018-08-04T02:09:16.640Z,23.10
2018-08-04T02:11:45.113Z,23.10
2018-08-04T02:14:13.727Z,23.00
2018-08-04T02:16:41.994Z,22.90
2018-08-04T02:19:10.258Z,22.90
2018-08-04T02:21:38.536Z,22.90
2018-08-04T02:24:06.844Z,22.80
2018-08-04T02:26:35.129Z,22.80
2018-08-04T02:29:03.673Z,22.80
2018-08-04T02:31:32.050Z,22.90
2018-08-04T02:34:00.310Z,22.80
2018-08-04T02:36:28.594Z,22.90
2018-08-04T02:38:56.843Z,22.80
2018-08-04T02:41:25.136Z,22.70
2018-08-04T02:43:53.397Z,22.70
2018-08-04T02:48:49.846Z,22.70
2018-08-04T02:51:18.108Z,22.60
2018-08-04T02:53:46.378Z,22.60
2018-08-04T02:56:14.634Z,22.50
2018-08-04T02:58:42.890Z,22.40
2018-08-04T03:01:11.206Z,22.30
2018-08-04T03:03:39.454Z,22.20
2018-08-04T03:06:07.759Z,22.10
2018-08-04T03:08:36.127Z,22.10
2018-08-04T03:11:04.307Z,22.00
2018-08-04T03:13:32.641Z,22.00
2018-08-04T03:16:00.931Z,22.00
2018-08-04T03:18:29.230Z,21.90
2018-08-04T03:20:57.504Z,21.90
2018-08-04T03:23:25.797Z,21.90
2018-08-04T03:25:54.068Z,21.80
2018-08-04T03:28:22.346Z,21.80
2018-08-04T03:30:50.625Z,21.80
2018-08-04T03:33:18.922Z,21.80
2018-08-04T03:35:47.222Z,21.80
2018-08-04T03:38:15.498Z,21.80
2018-08-04T03:40:43.782Z,21.80
2018-08-04T03:43:12.042Z,21.70
2018-08-04T03:45:40.325Z,21.80
2018-08-04T03:48:08.606Z,21.70
2018-08-04T03:50:36.871Z,21.70
2018-08-04T03:53:05.120Z,21.70
2018-08-04T03:55:33.397Z,21.70
2018-08-04T03:58:01.672Z,21.80
2018-08-04T04:00:29.946Z,21.90
2018-08-04T04:02:58.214Z,21.90
2018-08-04T04:07:54.503Z,21.90
2018-08-04T04:10:22.754Z,21.90
2018-08-04T04:12:51.033Z,21.90
2018-08-04T04:15:19.307Z,21.80
2018-08-04T04:17:48.312Z,21.80
2018-08-04T04:20:19.542Z,21.70
2018-08-04T04:22:48.149Z,21.60
2018-08-04T04:25:16.429Z,21.60
2018-08-04T04:27:44.902Z,21.60
2018-08-04T04:30:13.990Z,21.60
2018-08-04T04:32:42.277Z,21.70
2018-08-04T04:35:10.597Z,21.70
2018-08-04T04:37:38.877Z,21.70
2018-08-04T04:40:07.143Z,21.80
2018-08-04T04:42:35.418Z,21.80
2018-08-04T04:45:03.737Z,21.80
2018-08-04T04:47:32.025Z,21.70
2018-08-04T04:50:00.279Z,21.70
2018-08-04T04:52:28.567Z,21.80
2018-08-04T04:54:56.982Z,21.80
2018-08-04T04:57:25.260Z,21.80
2018-08-04T04:59:53.515Z,21.80
2018-08-04T05:02:21.806Z,22.00
2018-08-04T05:04:50.289Z,22.00
2018-08-04T05:07:18.582Z,22.10
2018-08-04T05:09:46.846Z,22.10
2018-08-04T05:12:15.140Z,22.10
2018-08-04T05:14:43.388Z,22.20
2018-08-04T05:17:11.684Z,22.20
2018-08-04T05:19:39.965Z,22.30
2018-08-04T05:22:08.249Z,22.30
2018-08-04T05:24:36.502Z,22.30
2018-08-04T05:27:05.020Z,22.10
2018-08-04T05:29:33.292Z,22.10
2018-08-04T05:32:01.662Z,22.10
2018-08-04T05:34:29.926Z,22.20
2018-08-04T05:36:58.205Z,22.30
2018-08-04T05:39:26.470Z,22.40
2018-08-04T05:41:54.738Z,22.50
2018-08-04T05:44:23.003Z,22.60
2018-08-04T05:46:51.282Z,22.70
2018-08-04T05:49:19.545Z,22.80
2018-08-04T05:51:47.835Z,22.80
2018-08-04T05:54:16.147Z,22.90
2018-08-04T05:56:44.422Z,22.90
2018-08-04T05:59:12.702Z,23.00
2018-08-04T06:01:41.104Z,23.10
2018-08-04T06:04:09.369Z,23.30
2018-08-04T06:06:37.699Z,23.50
2018-08-04T06:09:07.973Z,23.80
2018-08-04T06:11:36.264Z,23.90
2018-08-04T06:14:04.623Z,24.10
2018-08-04T06:16:32.924Z,24.30
2018-08-04T06:19:01.205Z,24.50
2018-08-04T06:21:29.482Z,24.70
2018-08-04T06:23:57.732Z,24.80
2018-08-04T06:26:26.033Z,24.80
2018-08-04T06:28:54.296Z,24.90
2018-08-04T06:31:22.578Z,25.00
2018-08-04T06:33:50.850Z,25.20
2018-08-04T06:36:19.143Z,25.30
2018-08-04T06:38:47.425Z,25.30
2018-08-04T06:41:15.716Z,25.60
2018-08-04T06:43:44.027Z,25.80
2018-08-04T06:46:12.292Z,25.90
2018-08-04T06:48:40.563Z,26.10
2018-08-04T06:51:08.893Z,26.40
2018-08-04T06:53:37.166Z,26.50
2018-08-04T06:56:05.456Z,26.70
2018-08-04T06:58:33.725Z,27.10
2018-08-04T07:01:01.991Z,27.20
2018-08-04T07:03:30.382Z,27.40
2018-08-04T07:05:58.638Z,27.60
2018-08-04T07:08:26.943Z,27.80
2018-08-04T07:10:55.222Z,27.90
2018-08-04T07:13:23.491Z,27.90
2018-08-04T07:15:51.745Z,28.10
2018-08-04T07:18:20.011Z,28.50
2018-08-04T07:20:48.309Z,28.80
2018-08-04T07:23:16.591Z,29.00
2018-08-04T07:25:44.870Z,29.20
2018-08-04T07:28:13.152Z,29.40
2018-08-04T07:30:41.478Z,29.70
2018-08-04T07:33:09.809Z,29.80
2018-08-04T07:35:38.187Z,29.90
2018-08-04T07:38:06.458Z,30.20
2018-08-04T07:40:34.737Z,30.40
2018-08-04T07:45:31.013Z,31.00
2018-08-04T07:47:59.388Z,31.40
2018-08-04T07:50:27.632Z,31.70
2018-08-04T07:52:55.919Z,31.90
2018-08-04T07:55:24.182Z,32.10
2018-08-04T07:57:52.445Z,32.20
2018-08-04T08:00:20.705Z,32.70
2018-08-04T08:02:48.990Z,33.30
2018-08-04T08:05:17.273Z,33.90
2018-08-04T08:07:45.538Z,34.90
2018-08-04T08:10:13.787Z,36.00
2018-08-04T08:12:42.065Z,36.40
2018-08-04T08:15:10.358Z,36.60
2018-08-04T08:17:38.631Z,36.90
2018-08-04T08:20:07.003Z,37.50
2018-08-04T08:22:39.721Z,37.40
2018-08-04T08:25:08.774Z,36.30
2018-08-04T08:27:37.613Z,34.50
2018-08-04T08:30:12.288Z,33.70
2018-08-04T08:32:40.714Z,33.00
2018-08-04T08:35:09.563Z,32.60
2018-08-04T08:37:37.890Z,32.30
2018-08-04T08:40:06.740Z,32.00
2018-08-04T08:42:35.044Z,32.10
2018-08-04T08:45:03.619Z,31.80
2018-08-04T08:47:31.974Z,31.80
2018-08-04T08:50:00.243Z,31.60
2018-08-04T08:52:28.541Z,31.50
2018-08-04T08:54:56.805Z,31.30
2018-08-04T08:57:25.075Z,31.30
2018-08-04T08:59:53.374Z,31.50
2018-08-04T09:02:21.630Z,31.50
2018-08-04T09:04:49.926Z,32.40
2018-08-04T09:07:18.195Z,33.50
2018-08-04T09:09:46.495Z,33.80
2018-08-04T09:12:14.763Z,34.00
2018-08-04T09:14:43.051Z,34.10
2018-08-04T09:17:11.338Z,34.80
2018-08-04T09:19:39.617Z,35.60
2018-08-04T09:22:07.870Z,36.70
2018-08-04T09:24:36.270Z,37.60
2018-08-04T09:27:04.875Z,38.30
2018-08-04T09:29:33.151Z,39.10
2018-08-04T09:32:01.417Z,40.00
2018-08-04T09:34:29.762Z,40.90
2018-08-04T09:36:58.063Z,40.90
2018-08-04T09:39:26.369Z,41.10
2018-08-04T09:41:54.636Z,41.00
2018-08-04T09:44:22.914Z,40.90
2018-08-04T09:46:51.200Z,41.10
2018-08-04T09:49:19.473Z,41.10
2018-08-04T09:51:47.741Z,41.70
2018-08-04T09:54:16.014Z,41.40
2018-08-04T09:56:44.316Z,40.30
2018-08-04T09:59:12.620Z,38.30
2018-08-04T10:01:40.873Z,37.20
2018-08-04T10:04:09.195Z,36.40
2018-08-04T10:06:37.536Z,35.80
2018-08-04T10:09:08.658Z,35.50
2018-08-04T10:11:36.956Z,35.20
2018-08-04T10:14:05.414Z,34.80
2018-08-04T10:16:33.710Z,34.10
2018-08-04T10:19:02.073Z,33.60
2018-08-04T10:21:30.354Z,33.40
2018-08-04T10:23:58.641Z,33.40
2018-08-04T10:26:26.918Z,33.40
2018-08-04T10:28:55.214Z,33.50
2018-08-04T10:31:23.539Z,33.50
2018-08-04T10:33:51.798Z,33.50
2018-08-04T10:36:20.127Z,33.40
2018-08-04T10:38:48.419Z,33.30
2018-08-04T10:41:16.694Z,33.30
2018-08-04T10:43:44.966Z,33.20
2018-08-04T10:46:13.263Z,33.00
2018-08-04T10:48:41.530Z,32.90
2018-08-04T10:51:09.864Z,32.80
2018-08-04T10:53:38.126Z,32.70
2018-08-04T10:56:06.451Z,32.70
2018-08-04T10:58:34.719Z,32.80
2018-08-04T11:01:03.018Z,33.00
2018-08-04T11:03:31.309Z,33.20
2018-08-04T11:06:02.598Z,33.30
2018-08-04T11:08:30.858Z,33.50
2018-08-04T11:10:59.397Z,33.90
2018-08-04T11:13:27.653Z,34.10
2018-08-04T11:15:55.958Z,34.10
2018-08-04T11:18:24.210Z,34.00
2018-08-04T11:20:52.522Z,33.90
2018-08-04T11:23:20.778Z,33.80
2018-08-04T11:25:49.055Z,33.50
2018-08-04T11:28:17.440Z,33.30
2018-08-04T11:30:45.767Z,33.20
2018-08-04T11:33:14.039Z,32.70
2018-08-04T11:35:42.345Z,32.40
2018-08-04T11:40:38.783Z,32.10
2018-08-04T11:43:07.069Z,32.00
2018-08-04T11:45:35.385Z,32.00
2018-08-04T11:48:03.651Z,32.10
2018-08-04T11:50:31.942Z,32.20
2018-08-04T11:53:00.227Z,32.30
2018-08-04T11:55:28.503Z,32.40
2018-08-04T11:57:56.846Z,32.50
2018-08-04T12:00:25.310Z,32.50
2018-08-04T12:02:53.573Z,32.50
2018-08-04T12:05:21.911Z,32.40
2018-08-04T12:07:50.373Z,32.30
2018-08-04T12:10:18.714Z,32.30
2018-08-04T12:12:47.036Z,32.30
2018-08-04T12:15:15.309Z,32.50
2018-08-04T12:17:43.584Z,32.60
2018-08-04T12:20:11.861Z,32.80
2018-08-04T12:22:40.165Z,33.00
2018-08-04T12:25:08.473Z,33.00
2018-08-04T12:27:36.758Z,33.20
2018-08-04T12:30:06.562Z,33.20
2018-08-04T12:32:34.847Z,33.20
2018-08-04T12:35:03.138Z,33.10
2018-08-04T12:37:31.469Z,33.20
2018-08-04T12:39:59.686Z,33.10
2018-08-04T12:42:28.117Z,33.10
2018-08-04T12:44:56.422Z,33.10
2018-08-04T12:47:24.673Z,33.10
2018-08-04T12:49:52.943Z,33.20
2018-08-04T12:52:21.214Z,33.40
2018-08-04T12:54:49.498Z,33.60
2018-08-04T12:57:17.757Z,33.70
2018-08-04T12:59:46.033Z,33.50
2018-08-04T13:02:14.309Z,33.40
2018-08-04T13:04:42.574Z,33.30
2018-08-04T13:07:11.225Z,33.20
2018-08-04T13:09:39.510Z,33.10
2018-08-04T13:12:07.787Z,32.90
2018-08-04T13:14:36.074Z,32.90
2018-08-04T13:17:04.362Z,32.80
2018-08-04T13:19:32.649Z,32.00
2018-08-04T13:22:00.997Z,30.70
2018-08-04T13:24:29.225Z,29.20
2018-08-04T13:26:57.495Z,27.60
2018-08-04T13:29:25.750Z,26.30
2018-08-04T13:31:54.011Z,25.50
2018-08-04T13:34:22.377Z,25.20
2018-08-04T13:36:50.702Z,25.00
2018-08-04T13:39:18.952Z,25.00
2018-08-04T13:41:47.269Z,25.00
2018-08-04T13:44:15.535Z,25.10
2018-08-04T13:46:43.814Z,25.40
2018-08-04T13:49:12.069Z,25.80
2018-08-04T13:51:40.369Z,26.00
2018-08-04T13:54:08.619Z,26.10
2018-08-04T13:56:36.943Z,26.30
2018-08-04T13:59:05.346Z,26.40
2018-08-04T14:01:33.645Z,26.50
2018-08-04T14:04:02.022Z,26.50
2018-08-04T14:06:30.626Z,26.50
2018-08-04T14:08:58.921Z,26.50
2018-08-04T14:11:27.232Z,26.50
2018-08-04T14:13:55.525Z,26.60
2018-08-04T14:16:23.785Z,26.60
2018-08-04T14:18:52.106Z,26.90
2018-08-04T14:21:20.396Z,26.90
2018-08-04T14:23:48.672Z,26.90
2018-08-04T14:26:17.017Z,27.10
2018-08-04T14:28:45.338Z,27.40
2018-08-04T14:33:41.587Z,28.10
2018-08-04T14:36:09.882Z,28.50
2018-08-04T14:38:38.173Z,28.60
2018-08-04T14:41:06.481Z,28.60
2018-08-04T14:43:34.785Z,28.70
2018-08-04T14:46:03.090Z,28.80
2018-08-04T14:48:31.349Z,29.00
2018-08-04T14:50:59.688Z,29.00
2018-08-04T14:53:27.989Z,29.10
2018-08-04T14:55:56.287Z,29.10
2018-08-04T14:58:24.565Z,29.20
2018-08-04T15:00:52.865Z,29.30
2018-08-04T15:03:21.175Z,29.30
2018-08-04T15:05:49.474Z,29.30
2018-08-04T15:08:17.748Z,29.10
2018-08-04T15:10:46.053Z,28.90
2018-08-04T15:13:14.533Z,28.90
2018-08-04T15:15:42.871Z,29.10
2018-08-04T15:18:11.175Z,29.40
2018-08-04T15:20:39.431Z,29.90
2018-08-04T15:23:07.777Z,30.20
2018-08-04T15:25:36.054Z,30.40
2018-08-04T15:28:04.382Z,30.60
2018-08-04T15:30:32.647Z,30.90
2018-08-04T15:33:00.942Z,30.90
2018-08-04T15:35:29.248Z,30.90
2018-08-04T15:37:57.522Z,31.00
2018-08-04T15:40:25.881Z,31.00
2018-08-04T15:42:54.156Z,31.00
2018-08-04T15:45:22.406Z,31.00
2018-08-04T15:47:50.712Z,31.00
2018-08-04T15:50:18.980Z,30.90
2018-08-04T15:55:15.332Z,30.70
2018-08-04T15:57:43.613Z,30.70
2018-08-04T16:00:11.886Z,30.50
2018-08-04T16:02:40.153Z,30.40
2018-08-04T16:05:08.458Z,30.40
2018-08-04T16:07:36.727Z,30.40
2018-08-04T16:12:32.987Z,30.20
2018-08-04T16:15:01.289Z,30.20
2018-08-04T16:17:29.602Z,30.50
2018-08-04T16:19:57.856Z,30.60
2018-08-04T16:22:26.213Z,30.60
2018-08-04T16:24:54.484Z,30.60
2018-08-04T16:27:22.754Z,30.50
2018-08-04T16:29:51.059Z,30.50
2018-08-04T16:32:19.333Z,30.40
2018-08-04T16:34:47.613Z,30.50
2018-08-04T16:37:15.888Z,30.50
2018-08-04T16:39:44.160Z,30.40
2018-08-04T16:42:12.454Z,30.30
2018-08-04T16:44:40.719Z,30.60
2018-08-04T16:47:08.982Z,30.90
2018-08-04T16:49:37.238Z,31.30
2018-08-04T16:52:05.542Z,31.50
2018-08-04T16:54:33.790Z,31.70
2018-08-04T16:57:02.058Z,31.80
2018-08-04T16:59:30.322Z,31.90
2018-08-04T17:01:58.602Z,32.20
2018-08-04T17:04:26.864Z,32.20
2018-08-04T17:06:55.162Z,32.20
2018-08-04T17:09:23.417Z,32.20
2018-08-04T17:11:51.704Z,32.20
2018-08-04T17:14:19.975Z,32.20
2018-08-04T17:16:48.246Z,32.20
2018-08-04T17:19:16.552Z,32.20
2018-08-04T17:21:44.828Z,32.10
2018-08-04T17:24:13.090Z,32.00
2018-08-04T17:26:41.411Z,31.90
2018-08-04T17:29:09.715Z,31.80
2018-08-04T17:31:37.970Z,31.80
2018-08-04T17:34:06.266Z,31.80
2018-08-04T17:36:34.532Z,31.80
2018-08-04T17:39:03.661Z,31.80
2018-08-04T17:41:31.966Z,31.80
2018-08-04T17:44:00.250Z,31.80
2018-08-04T17:46:28.547Z,31.70
2018-08-04T17:48:56.817Z,31.70
2018-08-04T17:53:53.318Z,31.60
2018-08-04T17:56:21.595Z,31.60
2018-08-04T17:58:50.082Z,31.50
2018-08-04T18:01:18.441Z,31.50
2018-08-04T18:03:46.754Z,31.40
2018-08-04T18:06:15.050Z,31.30
2018-08-04T18:08:43.338Z,31.30
2018-08-04T18:11:11.598Z,31.20
2018-08-04T18:13:39.885Z,31.20
2018-08-04T18:16:08.274Z,31.00
2018-08-04T18:18:36.598Z,31.00
2018-08-04T18:21:04.834Z,30.90
2018-08-04T18:23:33.104Z,30.90
2018-08-04T18:26:01.358Z,30.90
2018-08-04T18:28:29.721Z,30.80
2018-08-04T18:30:58.008Z,30.80
2018-08-04T18:33:26.304Z,30.70
2018-08-04T18:35:54.559Z,30.60
2018-08-04T18:38:22.827Z,30.40
2018-08-04T18:40:51.144Z,30.30
2018-08-04T18:43:19.565Z,30.20
2018-08-04T18:45:47.850Z,30.10
2018-08-04T18:48:16.128Z,30.00
2018-08-04T18:50:44.569Z,29.90
2018-08-04T18:53:12.859Z,29.90
2018-08-04T18:55:41.137Z,29.80
2018-08-04T18:58:09.425Z,29.80
2018-08-04T19:00:37.743Z,29.80
2018-08-04T19:03:06.049Z,29.70
2018-08-04T19:05:34.345Z,29.70
2018-08-04T19:08:02.603Z,29.70
2018-08-04T19:10:30.886Z,29.60
2018-08-04T19:12:59.158Z,29.60
2018-08-04T19:15:27.454Z,29.60
2018-08-04T19:17:55.718Z,29.60
2018-08-04T19:20:24.034Z,29.50
2018-08-04T19:22:52.302Z,29.50
2018-08-04T19:25:20.577Z,29.40
2018-08-04T19:27:48.856Z,29.30
2018-08-04T19:32:45.210Z,29.20
2018-08-04T19:37:41.571Z,29.00
2018-08-04T19:40:09.838Z,29.00
2018-08-04T19:45:06.269Z,28.90
2018-08-04T19:47:34.552Z,28.80
2018-08-04T19:52:30.833Z,28.60
2018-08-04T19:54:59.089Z,28.50
2018-08-04T19:57:27.329Z,28.40
2018-08-04T19:59:55.696Z,28.30
2018-08-04T20:02:23.947Z,28.20
2018-08-04T20:04:52.219Z,28.00
2018-08-04T20:07:20.482Z,27.70
2018-08-04T20:09:48.902Z,27.40
2018-08-04T20:12:17.171Z,27.10
2018-08-04T20:14:45.616Z,26.90
2018-08-04T20:17:14.017Z,26.80
2018-08-04T20:19:42.411Z,26.80
2018-08-04T20:22:12.858Z,26.70
2018-08-04T20:24:41.225Z,26.80
2018-08-04T20:27:09.481Z,26.90
2018-08-04T20:29:37.814Z,27.00
2018-08-04T20:32:06.370Z,27.10
2018-08-04T20:34:34.637Z,27.10
2018-08-04T20:37:03.022Z,27.20
2018-08-04T20:39:31.299Z,27.30
2018-08-04T20:41:59.582Z,27.40
2018-08-04T20:44:27.854Z,27.30
2018-08-04T20:46:56.329Z,27.30
2018-08-04T20:49:24.587Z,27.20
2018-08-04T20:51:53.114Z,27.20
2018-08-04T20:54:21.376Z,27.20
2018-08-04T20:56:49.639Z,27.10
2018-08-04T20:59:17.918Z,27.00
2018-08-04T21:01:48.669Z,26.90
2018-08-04T21:04:17.234Z,26.80
2018-08-04T21:06:45.528Z,26.80
2018-08-04T21:09:13.786Z,26.90
2018-08-04T21:11:48.554Z,27.00
2018-08-04T21:14:17.117Z,27.00
2018-08-04T21:16:45.418Z,26.90
2018-08-04T21:19:13.670Z,26.90
2018-08-04T21:21:41.937Z,26.80
2018-08-04T21:24:10.181Z,26.70
2018-08-04T21:26:38.515Z,26.60
2018-08-04T21:29:06.987Z,26.60
2018-08-04T21:31:35.466Z,26.50
2018-08-04T21:34:03.849Z,26.50
2018-08-04T21:36:32.134Z,26.40
2018-08-04T21:39:00.418Z,26.30
2018-08-04T21:41:29.297Z,26.30
2018-08-04T21:43:57.777Z,26.30
2018-08-04T21:46:26.079Z,26.20
2018-08-04T21:48:54.381Z,26.20
2018-08-04T21:51:22.658Z,26.10
2018-08-04T21:53:50.933Z,26.00
2018-08-04T21:56:19.221Z,25.90
2018-08-04T21:58:47.587Z,25.80
2018-08-04T22:01:15.911Z,25.70
2018-08-04T22:03:45.019Z,25.60
2018-08-04T22:06:14.350Z,25.60
2018-08-04T22:08:54.056Z,25.60
2018-08-04T22:11:22.306Z,25.60
2018-08-04T22:13:50.627Z,25.60
2018-08-04T22:16:18.923Z,25.70
2018-08-04T22:18:47.202Z,25.60
2018-08-04T22:21:15.513Z,25.60
2018-08-04T22:23:43.770Z,25.50
2018-08-04T22:26:12.062Z,25.40
2018-08-04T22:28:40.378Z,25.30
2018-08-04T22:31:08.670Z,25.20
2018-08-04T22:33:37.225Z,25.10
2018-08-04T22:38:33.584Z,25.00
2018-08-04T22:41:01.859Z,25.00
2018-08-04T22:43:30.105Z,25.00
2018-08-04T22:46:02.754Z,25.00
2018-08-04T22:48:31.034Z,25.00
2018-08-04T22:50:59.330Z,25.00
2018-08-04T22:53:27.645Z,25.10
2018-08-04T22:55:55.922Z,25.10
2018-08-04T22:58:24.181Z,25.10
2018-08-04T23:00:52.483Z,25.10
2018-08-04T23:03:20.817Z,25.10
2018-08-04T23:05:49.074Z,25.10
2018-08-04T23:08:17.349Z,25.10
2018-08-04T23:10:45.927Z,25.00
2018-08-04T23:13:15.650Z,25.00
2018-08-04T23:15:43.945Z,24.90
2018-08-04T23:18:12.409Z,24.90
2018-08-04T23:20:40.884Z,24.80
2018-08-04T23:23:10.230Z,24.80
2018-08-04T23:28:13.119Z,24.70
2018-08-04T23:30:41.423Z,24.70
2018-08-04T23:33:09.693Z,24.70
2018-08-04T23:35:37.946Z,24.60
2018-08-04T23:38:06.225Z,24.60
2018-08-04T23:40:34.571Z,24.60
2018-08-04T23:43:02.918Z,24.60
2018-08-04T23:45:31.175Z,24.60
2018-08-04T23:47:59.469Z,24.60
2018-08-04T23:50:27.746Z,24.50
2018-08-04T23:52:56.026Z,24.50
2018-08-04T23:55:24.294Z,24.50
2018-08-04T23:57:52.636Z,24.60
